Ana Sayfa
METAR-TAF:

METAR-TAF

Havaalanları :

Newberry, Michigan, Amerika Birleşik Devletleri

Enlem: 46-18-40N, Boylam: 085-27-26W, yükseklik: 265 m

Güncel hava durumu gözlemi

Rapor saat 16:58 UTC de 21 dakika önce yapıldı.
Rüzgar batı/güneybatıdan 7 kt
Sıcaklık 24°C
Nem 89%
Basınç 1011 hPa
Görüş mesafesi: 11.3 km
1900 ft yükseklikte çok bulutlu

METAR: KERY 161658Z AUTO 25007KT 7SM OVC019 24/22 A2984 RMK AO2 T02410224

Saat: 13:19 (17:19 UTC)


TAF: eksik

4.000'den fazla havaalanı için hava durumu gözlemleri ve tahminleri (METAR ve TAF raporları).

Kullanılabilir istasyonlar harita üzerinde sarı ve kırmızı noktalarla gösterilir.

İstasyonun adını görmek için fareyi noktanın üzerinde gezdirin.

Sonrasında hava gözlem ve tahminlerini görmek için tıklayın.

Haritayı değiştirmek için: yaklaştırmak için siyah artı işaretli yeşil düğmeye ve uzaklaştırmak için de eksi işaretli düğmeye hızla tıklayın; bitişik haritalar için yeşil okları kullanın.


METAR-TAF: